sensor_id;sensor_type;location;lat;lon;timestamp;temperature;humidity
5743;DHT22;2896;53.500;10.020;2023-05-10T00:01:57;13.10;99.90
5743;DHT22;2896;53.500;10.020;2023-05-10T00:04:24;13.10;99.90
5743;DHT22;2896;53.500;10.020;2023-05-10T00:06:52;13.10;99.90
5743;DHT22;2896;53.500;10.020;2023-05-10T00:09:19;13.00;99.90
5743;DHT22;2896;53.500;10.020;2023-05-10T00:11:45;13.00;99.90
5743;DHT22;2896;53.500;10.020;2023-05-10T00:14:13;13.10;99.90
5743;DHT22;2896;53.500;10.020;2023-05-10T00:16:40;13.10;99.90
5743;DHT22;2896;53.500;10.020;2023-05-10T00:19:07;13.00;99.90
5743;DHT22;2896;53.500;10.020;2023-05-10T00:21:33;13.00;99.90
5743;DHT22;2896;53.500;10.020;2023-05-10T00:24:00;13.00;99.90
5743;DHT22;2896;53.500;10.020;2023-05-10T00:26:26;13.00;99.90
5743;DHT22;2896;53.500;10.020;2023-05-10T00:28:53;12.90;99.90
5743;DHT22;2896;53.500;10.020;2023-05-10T00:31:21;12.90;99.90
5743;DHT22;2896;53.500;10.020;2023-05-10T00:33:47;12.80;99.90
5743;DHT22;2896;53.500;10.020;2023-05-10T00:36:14;12.80;99.90
5743;DHT22;2896;53.500;10.020;2023-05-10T00:38:41;12.60;99.90
5743;DHT22;2896;53.500;10.020;2023-05-10T00:41:07;12.50;99.90
5743;DHT22;2896;53.500;10.020;2023-05-10T00:43:34;12.30;99.90
5743;DHT22;2896;53.500;10.020;2023-05-10T00:46:01;12.30;99.90
5743;DHT22;2896;53.500;10.020;2023-05-10T00:48:29;13.70;99.90
5743;DHT22;2896;53.500;10.020;2023-05-10T00:50:56;12.10;99.90
5743;DHT22;2896;53.500;10.020;2023-05-10T00:53:23;12.10;99.90
5743;DHT22;2896;53.500;10.020;2023-05-10T00:55:50;12.10;99.90
5743;DHT22;2896;53.500;10.020;2023-05-10T00:58:17;12.10;99.90
5743;DHT22;2896;53.500;10.020;2023-05-10T01:00:46;12.10;99.90
5743;DHT22;2896;53.500;10.020;2023-05-10T01:03:13;12.00;99.90
5743;DHT22;2896;53.500;10.020;2023-05-10T01:05:41;11.80;99.90
5743;DHT22;2896;53.500;10.020;2023-05-10T01:08:08;11.80;99.90
5743;DHT22;2896;53.500;10.020;2023-05-10T01:10:35;11.70;99.90
5743;DHT22;2896;53.500;10.020;2023-05-10T01:13:02;11.90;99.90
5743;DHT22;2896;53.500;10.020;2023-05-10T01:15:29;11.90;99.90
5743;DHT22;2896;53.500;10.020;2023-05-10T01:17:56;11.90;99.90
5743;DHT22;2896;53.500;10.020;2023-05-10T01:20:23;11.60;99.90
5743;DHT22;2896;53.500;10.020;2023-05-10T01:23:20;11.50;99.90
5743;DHT22;2896;53.500;10.020;2023-05-10T01:29:31;11.40;99.90
5743;DHT22;2896;53.500;10.020;2023-05-10T01:32:15;11.50;99.90
5743;DHT22;2896;53.500;10.020;2023-05-10T01:34:49;12.90;99.90
5743;DHT22;2896;53.500;10.020;2023-05-10T01:37:21;11.30;99.90
5743;DHT22;2896;53.500;10.020;2023-05-10T01:39:53;11.30;99.90
5743;DHT22;2896;53.500;10.020;2023-05-10T01:42:25;11.50;99.90
5743;DHT22;2896;53.500;10.020;2023-05-10T01:44:58;11.40;99.90
5743;DHT22;2896;53.500;10.020;2023-05-10T01:47:32;11.40;99.90
5743;DHT22;2896;53.500;10.020;2023-05-10T01:50:03;11.40;99.90
5743;DHT22;2896;53.500;10.020;2023-05-10T01:52:37;11.50;99.90
5743;DHT22;2896;53.500;10.020;2023-05-10T01:55:07;11.50;99.90
5743;DHT22;2896;53.500;10.020;2023-05-10T01:57:36;11.50;99.90
5743;DHT22;2896;53.500;10.020;2023-05-10T02:00:06;11.60;99.90
5743;DHT22;2896;53.500;10.020;2023-05-10T02:02:37;11.50;99.90
5743;DHT22;2896;53.500;10.020;2023-05-10T02:05:06;11.60;99.90
5743;DHT22;2896;53.500;10.020;2023-05-10T02:07:35;11.60;99.90
5743;DHT22;2896;53.500;10.020;2023-05-10T02:10:02;11.70;99.90
5743;DHT22;2896;53.500;10.020;2023-05-10T02:12:32;11.60;99.90
5743;DHT22;2896;53.500;10.020;2023-05-10T02:15:03;11.60;99.90
5743;DHT22;2896;53.500;10.020;2023-05-10T02:17:31;11.50;99.90
5743;DHT22;2896;53.500;10.020;2023-05-10T02:20:01;11.50;99.90
5743;DHT22;2896;53.500;10.020;2023-05-10T02:22:29;11.50;99.90
5743;DHT22;2896;53.500;10.020;2023-05-10T02:24:58;11.50;99.90
5743;DHT22;2896;53.500;10.020;2023-05-10T02:27:27;11.30;99.90
5743;DHT22;2896;53.500;10.020;2023-05-10T02:29:54;11.40;99.90
5743;DHT22;2896;53.500;10.020;2023-05-10T02:32:21;11.50;99.90
5743;DHT22;2896;53.500;10.020;2023-05-10T02:34:49;11.50;99.90
5743;DHT22;2896;53.500;10.020;2023-05-10T02:37:19;11.50;99.90
5743;DHT22;2896;53.500;10.020;2023-05-10T02:39:46;11.50;99.90
5743;DHT22;2896;53.500;10.020;2023-05-10T02:42:16;11.40;99.90
5743;DHT22;2896;53.500;10.020;2023-05-10T02:44:45;11.30;99.90
5743;DHT22;2896;53.500;10.020;2023-05-10T02:47:14;11.40;99.90
5743;DHT22;2896;53.500;10.020;2023-05-10T02:49:41;11.40;99.90
5743;DHT22;2896;53.500;10.020;2023-05-10T02:52:08;11.40;99.90
5743;DHT22;2896;53.500;10.020;2023-05-10T02:54:41;11.40;99.90
5743;DHT22;2896;53.500;10.020;2023-05-10T02:57:13;11.30;99.90
5743;DHT22;2896;53.500;10.020;2023-05-10T02:59:41;11.20;99.90
5743;DHT22;2896;53.500;10.020;2023-05-10T03:02:10;11.20;99.90
5743;DHT22;2896;53.500;10.020;2023-05-10T03:04:37;11.20;99.90
5743;DHT22;2896;53.500;10.020;2023-05-10T03:07:04;11.10;99.90
5743;DHT22;2896;53.500;10.020;2023-05-10T03:09:32;11.10;99.90
5743;DHT22;2896;53.500;10.020;2023-05-10T03:12:06;11.20;99.90
5743;DHT22;2896;53.500;10.020;2023-05-10T03:14:42;11.10;99.90
5743;DHT22;2896;53.500;10.020;2023-05-10T03:17:15;11.20;99.90
5743;DHT22;2896;53.500;10.020;2023-05-10T03:19:48;11.10;99.90
5743;DHT22;2896;53.500;10.020;2023-05-10T03:22:24;11.10;99.90
5743;DHT22;2896;53.500;10.020;2023-05-10T03:24:53;11.20;99.90
5743;DHT22;2896;53.500;10.020;2023-05-10T03:27:23;11.20;99.90
5743;DHT22;2896;53.500;10.020;2023-05-10T03:29:52;11.20;99.90
5743;DHT22;2896;53.500;10.020;2023-05-10T03:32:19;11.20;99.90
5743;DHT22;2896;53.500;10.020;2023-05-10T03:34:46;11.10;99.90
5743;DHT22;2896;53.500;10.020;2023-05-10T03:37:13;11.10;99.90
5743;DHT22;2896;53.500;10.020;2023-05-10T03:39:39;11.00;99.90
5743;DHT22;2896;53.500;10.020;2023-05-10T03:42:06;11.00;99.90
5743;DHT22;2896;53.500;10.020;2023-05-10T03:44:34;11.00;99.90
5743;DHT22;2896;53.500;10.020;2023-05-10T03:47:01;11.10;99.90
5743;DHT22;2896;53.500;10.020;2023-05-10T03:49:27;11.20;99.90
5743;DHT22;2896;53.500;10.020;2023-05-10T03:51:54;11.20;99.90
5743;DHT22;2896;53.500;10.020;2023-05-10T03:54:20;11.10;99.90
5743;DHT22;2896;53.500;10.020;2023-05-10T03:56:47;11.10;99.90
5743;DHT22;2896;53.500;10.020;2023-05-10T03:59:14;11.10;99.90
5743;DHT22;2896;53.500;10.020;2023-05-10T04:01:42;11.20;99.90
5743;DHT22;2896;53.500;10.020;2023-05-10T04:04:08;11.00;99.90
5743;DHT22;2896;53.500;10.020;2023-05-10T04:06:35;11.30;99.90
5743;DHT22;2896;53.500;10.020;2023-05-10T04:09:02;11.20;99.90
5743;DHT22;2896;53.500;10.020;2023-05-10T04:11:30;11.30;99.90
5743;DHT22;2896;53.500;10.020;2023-05-10T04:13:56;11.20;99.90
5743;DHT22;2896;53.500;10.020;2023-05-10T04:16:23;11.20;99.90
5743;DHT22;2896;53.500;10.020;2023-05-10T04:18:51;11.20;99.90
5743;DHT22;2896;53.500;10.020;2023-05-10T04:21:17;11.30;99.90
5743;DHT22;2896;53.500;10.020;2023-05-10T04:23:44;11.30;99.90
5743;DHT22;2896;53.500;10.020;2023-05-10T04:26:11;11.40;99.90
5743;DHT22;2896;53.500;10.020;2023-05-10T04:28:37;11.50;99.90
5743;DHT22;2896;53.500;10.020;2023-05-10T04:31:05;11.50;99.90
5743;DHT22;2896;53.500;10.020;2023-05-10T04:33:32;11.50;99.90
5743;DHT22;2896;53.500;10.020;2023-05-10T04:36:00;11.50;99.90
5743;DHT22;2896;53.500;10.020;2023-05-10T04:38:27;11.50;99.90
5743;DHT22;2896;53.500;10.020;2023-05-10T04:40:54;11.50;99.90
5743;DHT22;2896;53.500;10.020;2023-05-10T04:43:21;11.60;99.90
5743;DHT22;2896;53.500;10.020;2023-05-10T04:45:47;11.60;99.90
5743;DHT22;2896;53.500;10.020;2023-05-10T04:48:15;11.70;99.90
5743;DHT22;2896;53.500;10.020;2023-05-10T04:50:42;11.70;99.90
5743;DHT22;2896;53.500;10.020;2023-05-10T04:53:10;11.70;99.90
5743;DHT22;2896;53.500;10.020;2023-05-10T04:55:37;11.90;99.90
5743;DHT22;2896;53.500;10.020;2023-05-10T04:58:03;11.90;99.90
5743;DHT22;2896;53.500;10.020;2023-05-10T05:00:30;11.90;99.90
5743;DHT22;2896;53.500;10.020;2023-05-10T05:02:57;12.00;99.90
5743;DHT22;2896;53.500;10.020;2023-05-10T05:05:24;12.20;99.90
5743;DHT22;2896;53.500;10.020;2023-05-10T05:07:51;12.30;99.90
5743;DHT22;2896;53.500;10.020;2023-05-10T05:10:18;12.40;99.90
5743;DHT22;2896;53.500;10.020;2023-05-10T05:12:45;12.40;99.90
5743;DHT22;2896;53.500;10.020;2023-05-10T05:15:12;12.50;99.90
5743;DHT22;2896;53.500;10.020;2023-05-10T05:17:38;12.50;99.90
5743;DHT22;2896;53.500;10.020;2023-05-10T05:20:06;12.60;99.90
5743;DHT22;2896;53.500;10.020;2023-05-10T05:22:33;12.60;99.90
5743;DHT22;2896;53.500;10.020;2023-05-10T05:25:00;12.70;99.90
5743;DHT22;2896;53.500;10.020;2023-05-10T05:27:29;12.80;99.90
5743;DHT22;2896;53.500;10.020;2023-05-10T05:29:56;12.90;99.90
5743;DHT22;2896;53.500;10.020;2023-05-10T05:32:23;13.10;99.90
5743;DHT22;2896;53.500;10.020;2023-05-10T05:34:50;13.10;99.90
5743;DHT22;2896;53.500;10.020;2023-05-10T05:37:17;13.30;99.90
5743;DHT22;2896;53.500;10.020;2023-05-10T05:39:45;13.50;99.90
5743;DHT22;2896;53.500;10.020;2023-05-10T05:42:12;13.70;99.90
5743;DHT22;2896;53.500;10.020;2023-05-10T05:44:41;13.90;99.90
5743;DHT22;2896;53.500;10.020;2023-05-10T05:47:08;14.00;99.90
5743;DHT22;2896;53.500;10.020;2023-05-10T05:49:35;14.10;99.90
5743;DHT22;2896;53.500;10.020;2023-05-10T05:52:02;14.10;99.90
5743;DHT22;2896;53.500;10.020;2023-05-10T05:54:29;14.20;99.90
5743;DHT22;2896;53.500;10.020;2023-05-10T05:56:57;14.40;99.90
5743;DHT22;2896;53.500;10.020;2023-05-10T05:59:27;14.40;99.90
5743;DHT22;2896;53.500;10.020;2023-05-10T06:01:55;14.60;99.90
5743;DHT22;2896;53.500;10.020;2023-05-10T06:04:21;14.80;99.90
5743;DHT22;2896;53.500;10.020;2023-05-10T06:06:48;15.10;99.90
5743;DHT22;2896;53.500;10.020;2023-05-10T06:09:14;15.40;99.90
5743;DHT22;2896;53.500;10.020;2023-05-10T06:11:41;15.70;99.90
5743;DHT22;2896;53.500;10.020;2023-05-10T06:14:08;15.80;99.90
5743;DHT22;2896;53.500;10.020;2023-05-10T06:16:34;15.90;99.90
5743;DHT22;2896;53.500;10.020;2023-05-10T06:19:02;16.00;99.90
5743;DHT22;2896;53.500;10.020;2023-05-10T06:21:29;16.10;99.90
5743;DHT22;2896;53.500;10.020;2023-05-10T06:23:56;16.00;99.90
5743;DHT22;2896;53.500;10.020;2023-05-10T06:26:23;16.10;99.90
5743;DHT22;2896;53.500;10.020;2023-05-10T06:28:50;16.10;99.90
5743;DHT22;2896;53.500;10.020;2023-05-10T06:31:16;16.00;99.90
5743;DHT22;2896;53.500;10.020;2023-05-10T06:33:43;16.00;99.90
5743;DHT22;2896;53.500;10.020;2023-05-10T06:36:11;15.80;99.90
5743;DHT22;2896;53.500;10.020;2023-05-10T06:38:38;15.80;99.90
5743;DHT22;2896;53.500;10.020;2023-05-10T06:41:05;15.80;99.90
5743;DHT22;2896;53.500;10.020;2023-05-10T06:43:31;15.90;99.90
5743;DHT22;2896;53.500;10.020;2023-05-10T06:45:58;15.90;99.90
5743;DHT22;2896;53.500;10.020;2023-05-10T06:48:25;16.20;99.90
5743;DHT22;2896;53.500;10.020;2023-05-10T06:50:51;16.40;99.90
5743;DHT22;2896;53.500;10.020;2023-05-10T06:53:19;16.40;99.90
5743;DHT22;2896;53.500;10.020;2023-05-10T06:55:46;16.50;99.90
5743;DHT22;2896;53.500;10.020;2023-05-10T06:58:12;16.50;99.90
5743;DHT22;2896;53.500;10.020;2023-05-10T07:00:39;16.70;99.90
5743;DHT22;2896;53.500;10.020;2023-05-10T07:03:08;17.00;99.90
5743;DHT22;2896;53.500;10.020;2023-05-10T07:05:35;17.30;99.90
5743;DHT22;2896;53.500;10.020;2023-05-10T07:08:01;17.40;99.90
5743;DHT22;2896;53.500;10.020;2023-05-10T07:10:29;17.60;99.90
5743;DHT22;2896;53.500;10.020;2023-05-10T07:12:56;17.80;99.90
5743;DHT22;2896;53.500;10.020;2023-05-10T07:15:23;17.90;99.90
5743;DHT22;2896;53.500;10.020;2023-05-10T07:17:49;18.00;99.90
5743;DHT22;2896;53.500;10.020;2023-05-10T07:20:17;18.00;99.90
5743;DHT22;2896;53.500;10.020;2023-05-10T07:22:44;17.80;99.90
5743;DHT22;2896;53.500;10.020;2023-05-10T07:25:11;17.80;99.90
5743;DHT22;2896;53.500;10.020;2023-05-10T07:27:38;18.00;99.90
5743;DHT22;2896;53.500;10.020;2023-05-10T07:30:06;18.20;99.90
5743;DHT22;2896;53.500;10.020;2023-05-10T07:32:33;18.30;99.90
5743;DHT22;2896;53.500;10.020;2023-05-10T07:35:00;18.30;99.90
5743;DHT22;2896;53.500;10.020;2023-05-10T07:37:26;18.00;99.90
5743;DHT22;2896;53.500;10.020;2023-05-10T07:39:53;17.80;99.90
5743;DHT22;2896;53.500;10.020;2023-05-10T07:42:19;17.90;99.90
5743;DHT22;2896;53.500;10.020;2023-05-10T07:44:47;17.90;99.90
5743;DHT22;2896;53.500;10.020;2023-05-10T07:47:14;17.90;99.90
5743;DHT22;2896;53.500;10.020;2023-05-10T07:49:40;17.90;99.90
5743;DHT22;2896;53.500;10.020;2023-05-10T07:52:07;17.80;99.90
5743;DHT22;2896;53.500;10.020;2023-05-10T07:54:34;17.70;99.90
5743;DHT22;2896;53.500;10.020;2023-05-10T07:57:00;17.80;99.90
5743;DHT22;2896;53.500;10.020;2023-05-10T07:59:27;17.90;99.90
5743;DHT22;2896;53.500;10.020;2023-05-10T08:01:55;17.90;99.90
5743;DHT22;2896;53.500;10.020;2023-05-10T08:04:21;17.90;99.90
5743;DHT22;2896;53.500;10.020;2023-05-10T08:06:48;17.70;99.90
5743;DHT22;2896;53.500;10.020;2023-05-10T08:09:15;17.90;99.90
5743;DHT22;2896;53.500;10.020;2023-05-10T08:11:43;17.80;99.90
5743;DHT22;2896;53.500;10.020;2023-05-10T08:14:09;18.00;99.90
5743;DHT22;2896;53.500;10.020;2023-05-10T08:16:36;17.90;99.90
5743;DHT22;2896;53.500;10.020;2023-05-10T08:19:04;18.10;99.90
5743;DHT22;2896;53.500;10.020;2023-05-10T08:21:30;18.00;99.90
5743;DHT22;2896;53.500;10.020;2023-05-10T08:23:57;18.10;99.90
5743;DHT22;2896;53.500;10.020;2023-05-10T08:26:24;18.10;99.90
5743;DHT22;2896;53.500;10.020;2023-05-10T08:28:51;18.20;99.90
5743;DHT22;2896;53.500;10.020;2023-05-10T08:31:18;18.50;99.90
5743;DHT22;2896;53.500;10.020;2023-05-10T08:33:44;18.40;99.90
5743;DHT22;2896;53.500;10.020;2023-05-10T08:36:12;18.50;99.90
5743;DHT22;2896;53.500;10.020;2023-05-10T08:38:44;18.70;99.90
5743;DHT22;2896;53.500;10.020;2023-05-10T08:41:11;18.80;99.90
5743;DHT22;2896;53.500;10.020;2023-05-10T08:43:39;18.70;99.90
5743;DHT22;2896;53.500;10.020;2023-05-10T08:46:07;18.70;99.90
5743;DHT22;2896;53.500;10.020;2023-05-10T08:48:35;18.70;99.90
5743;DHT22;2896;53.500;10.020;2023-05-10T08:51:04;18.80;99.90
5743;DHT22;2896;53.500;10.020;2023-05-10T08:53:33;18.90;99.90
5743;DHT22;2896;53.500;10.020;2023-05-10T08:56:02;19.00;99.90
5743;DHT22;2896;53.500;10.020;2023-05-10T08:58:29;19.40;99.90
5743;DHT22;2896;53.500;10.020;2023-05-10T09:00:57;19.40;99.90
5743;DHT22;2896;53.500;10.020;2023-05-10T09:03:24;19.50;99.90
5743;DHT22;2896;53.500;10.020;2023-05-10T09:05:50;19.60;99.90
5743;DHT22;2896;53.500;10.020;2023-05-10T09:08:17;19.80;99.90
5743;DHT22;2896;53.500;10.020;2023-05-10T09:10:45;19.80;99.90
5743;DHT22;2896;53.500;10.020;2023-05-10T09:13:14;19.70;99.90
5743;DHT22;2896;53.500;10.020;2023-05-10T09:15:41;19.50;99.90
5743;DHT22;2896;53.500;10.020;2023-05-10T09:18:08;19.10;99.90
5743;DHT22;2896;53.500;10.020;2023-05-10T09:20:34;19.00;99.90
5743;DHT22;2896;53.500;10.020;2023-05-10T09:23:01;18.80;99.90
5743;DHT22;2896;53.500;10.020;2023-05-10T09:25:28;18.80;99.90
5743;DHT22;2896;53.500;10.020;2023-05-10T09:27:56;18.70;99.90
5743;DHT22;2896;53.500;10.020;2023-05-10T09:30:27;18.80;99.90
5743;DHT22;2896;53.500;10.020;2023-05-10T09:32:54;18.40;99.90
5743;DHT22;2896;53.500;10.020;2023-05-10T09:35:23;18.10;99.90
5743;DHT22;2896;53.500;10.020;2023-05-10T09:37:51;18.10;99.90
5743;DHT22;2896;53.500;10.020;2023-05-10T09:40:20;17.70;99.90
5743;DHT22;2896;53.500;10.020;2023-05-10T09:42:52;17.60;99.90
5743;DHT22;2896;53.500;10.020;2023-05-10T09:45:20;17.40;99.90
5743;DHT22;2896;53.500;10.020;2023-05-10T09:47:47;17.30;99.90
5743;DHT22;2896;53.500;10.020;2023-05-10T09:50:14;17.20;99.90
5743;DHT22;2896;53.500;10.020;2023-05-10T09:52:48;17.10;99.90
5743;DHT22;2896;53.500;10.020;2023-05-10T09:55:16;16.90;99.90
5743;DHT22;2896;53.500;10.020;2023-05-10T09:57:42;16.80;99.90
5743;DHT22;2896;53.500;10.020;2023-05-10T10:00:10;16.80;99.90
5743;DHT22;2896;53.500;10.020;2023-05-10T10:02:39;16.90;99.90
5743;DHT22;2896;53.500;10.020;2023-05-10T10:05:06;16.80;99.90
5743;DHT22;2896;53.500;10.020;2023-05-10T10:07:34;16.60;99.90
5743;DHT22;2896;53.500;10.020;2023-05-10T10:10:01;16.50;99.90
5743;DHT22;2896;53.500;10.020;2023-05-10T10:12:28;16.40;99.90
5743;DHT22;2896;53.500;10.020;2023-05-10T10:14:55;16.30;99.90
5743;DHT22;2896;53.500;10.020;2023-05-10T10:17:25;16.30;99.90
5743;DHT22;2896;53.500;10.020;2023-05-10T10:19:55;16.30;99.90
5743;DHT22;2896;53.500;10.020;2023-05-10T10:22:23;16.30;99.90
5743;DHT22;2896;53.500;10.020;2023-05-10T10:24:50;16.00;99.90
5743;DHT22;2896;53.500;10.020;2023-05-10T10:27:23;15.80;99.90
5743;DHT22;2896;53.500;10.020;2023-05-10T10:30:00;15.90;99.90
5743;DHT22;2896;53.500;10.020;2023-05-10T10:32:36;16.00;99.90
5743;DHT22;2896;53.500;10.020;2023-05-10T10:35:06;16.10;99.90
5743;DHT22;2896;53.500;10.020;2023-05-10T10:37:45;16.20;99.90
5743;DHT22;2896;53.500;10.020;2023-05-10T10:40:28;16.30;99.90
5743;DHT22;2896;53.500;10.020;2023-05-10T10:42:55;16.30;99.90
5743;DHT22;2896;53.500;10.020;2023-05-10T10:45:23;16.40;99.90
5743;DHT22;2896;53.500;10.020;2023-05-10T10:50:44;16.20;99.90
5743;DHT22;2896;53.500;10.020;2023-05-10T10:53:12;16.10;99.90
5743;DHT22;2896;53.500;10.020;2023-05-10T10:55:46;16.30;99.90
5743;DHT22;2896;53.500;10.020;2023-05-10T10:58:29;16.30;99.90
5743;DHT22;2896;53.500;10.020;2023-05-10T11:01:10;16.30;99.90
5743;DHT22;2896;53.500;10.020;2023-05-10T11:03:37;16.10;99.90
5743;DHT22;2896;53.500;10.020;2023-05-10T11:06:06;16.20;99.90
5743;DHT22;2896;53.500;10.020;2023-05-10T11:08:34;16.40;99.90
5743;DHT22;2896;53.500;10.020;2023-05-10T11:11:07;16.60;99.90
5743;DHT22;2896;53.500;10.020;2023-05-10T11:13:38;16.80;99.90
5743;DHT22;2896;53.500;10.020;2023-05-10T11:16:11;17.00;99.90
5743;DHT22;2896;53.500;10.020;2023-05-10T11:18:38;16.90;99.90
5743;DHT22;2896;53.500;10.020;2023-05-10T11:21:08;17.10;99.90
5743;DHT22;2896;53.500;10.020;2023-05-10T11:23:48;17.20;99.90
5743;DHT22;2896;53.500;10.020;2023-05-10T11:26:16;16.90;99.90
5743;DHT22;2896;53.500;10.020;2023-05-10T11:28:43;16.90;99.90
5743;DHT22;2896;53.500;10.020;2023-05-10T11:31:12;16.90;99.90
5743;DHT22;2896;53.500;10.020;2023-05-10T11:33:42;16.80;99.90
5743;DHT22;2896;53.500;10.020;2023-05-10T11:36:12;16.50;99.90
5743;DHT22;2896;53.500;10.020;2023-05-10T11:38:39;16.50;99.90
5743;DHT22;2896;53.500;10.020;2023-05-10T11:41:06;16.40;99.90
5743;DHT22;2896;53.500;10.020;2023-05-10T11:43:34;16.00;99.90
5743;DHT22;2896;53.500;10.020;2023-05-10T11:46:02;15.90;99.90
5743;DHT22;2896;53.500;10.020;2023-05-10T11:48:29;16.00;99.90
5743;DHT22;2896;53.500;10.020;2023-05-10T11:50:56;16.10;99.90
5743;DHT22;2896;53.500;10.020;2023-05-10T11:53:26;16.10;99.90
5743;DHT22;2896;53.500;10.020;2023-05-10T11:55:52;16.30;99.90
5743;DHT22;2896;53.500;10.020;2023-05-10T11:58:19;16.30;99.90
5743;DHT22;2896;53.500;10.020;2023-05-10T12:00:46;16.30;99.90
5743;DHT22;2896;53.500;10.020;2023-05-10T12:03:13;16.30;99.90
5743;DHT22;2896;53.500;10.020;2023-05-10T12:05:40;16.40;1.00
5743;DHT22;2896;53.500;10.020;2023-05-10T12:08:14;16.90;99.90
5743;DHT22;2896;53.500;10.020;2023-05-10T12:10:42;17.00;99.90
5743;DHT22;2896;53.500;10.020;2023-05-10T12:13:12;17.20;99.90
5743;DHT22;2896;53.500;10.020;2023-05-10T12:15:41;17.10;99.90
5743;DHT22;2896;53.500;10.020;2023-05-10T12:18:08;17.20;99.90
5743;DHT22;2896;53.500;10.020;2023-05-10T12:20:35;17.20;99.90
5743;DHT22;2896;53.500;10.020;2023-05-10T12:23:02;17.20;99.90
5743;DHT22;2896;53.500;10.020;2023-05-10T12:25:32;17.40;99.90
5743;DHT22;2896;53.500;10.020;2023-05-10T12:28:03;17.50;99.90
5743;DHT22;2896;53.500;10.020;2023-05-10T12:30:32;17.50;99.90
5743;DHT22;2896;53.500;10.020;2023-05-10T12:33:00;17.70;99.90
5743;DHT22;2896;53.500;10.020;2023-05-10T12:35:30;17.70;99.90
5743;DHT22;2896;53.500;10.020;2023-05-10T12:37:57;17.60;99.90
5743;DHT22;2896;53.500;10.020;2023-05-10T12:40:24;17.60;99.90
5743;DHT22;2896;53.500;10.020;2023-05-10T12:42:51;17.70;99.90
5743;DHT22;2896;53.500;10.020;2023-05-10T12:45:19;17.80;99.90
5743;DHT22;2896;53.500;10.020;2023-05-10T12:47:46;18.00;99.90
5743;DHT22;2896;53.500;10.020;2023-05-10T12:50:13;18.10;99.90
5743;DHT22;2896;53.500;10.020;2023-05-10T12:52:39;18.20;99.90
5743;DHT22;2896;53.500;10.020;2023-05-10T12:55:06;18.20;99.90
5743;DHT22;2896;53.500;10.020;2023-05-10T12:57:33;18.30;99.90
5743;DHT22;2896;53.500;10.020;2023-05-10T13:00:00;18.10;99.90
5743;DHT22;2896;53.500;10.020;2023-05-10T13:02:28;18.10;99.90
5743;DHT22;2896;53.500;10.020;2023-05-10T13:04:54;18.10;99.90
5743;DHT22;2896;53.500;10.020;2023-05-10T13:07:21;18.00;99.90
5743;DHT22;2896;53.500;10.020;2023-05-10T13:09:48;18.00;99.90
5743;DHT22;2896;53.500;10.020;2023-05-10T13:12:14;18.20;99.90
5743;DHT22;2896;53.500;10.020;2023-05-10T13:14:41;18.40;99.90
5743;DHT22;2896;53.500;10.020;2023-05-10T13:17:08;18.40;99.90
5743;DHT22;2896;53.500;10.020;2023-05-10T13:19:36;18.60;99.90
5743;DHT22;2896;53.500;10.020;2023-05-10T13:22:02;18.80;99.90
5743;DHT22;2896;53.500;10.020;2023-05-10T13:24:29;18.90;99.90
5743;DHT22;2896;53.500;10.020;2023-05-10T13:26:56;19.00;99.90
5743;DHT22;2896;53.500;10.020;2023-05-10T13:29:22;18.90;99.90
5743;DHT22;2896;53.500;10.020;2023-05-10T13:31:49;19.00;99.90
5743;DHT22;2896;53.500;10.020;2023-05-10T13:34:15;19.00;99.90
5743;DHT22;2896;53.500;10.020;2023-05-10T13:36:47;19.00;99.90
5743;DHT22;2896;53.500;10.020;2023-05-10T13:39:14;18.90;99.90
5743;DHT22;2896;53.500;10.020;2023-05-10T13:41:40;18.90;99.90
5743;DHT22;2896;53.500;10.020;2023-05-10T13:44:07;18.70;99.90
5743;DHT22;2896;53.500;10.020;2023-05-10T13:46:34;18.80;99.90
5743;DHT22;2896;53.500;10.020;2023-05-10T13:49:00;18.90;99.90
5743;DHT22;2896;53.500;10.020;2023-05-10T13:51:27;19.90;99.90
5743;DHT22;2896;53.500;10.020;2023-05-10T13:53:55;19.10;99.90
5743;DHT22;2896;53.500;10.020;2023-05-10T13:56:22;19.00;99.90
5743;DHT22;2896;53.500;10.020;2023-05-10T13:58:49;19.20;99.90
5743;DHT22;2896;53.500;10.020;2023-05-10T14:01:16;19.30;99.90
5743;DHT22;2896;53.500;10.020;2023-05-10T14:03:43;19.30;99.90
5743;DHT22;2896;53.500;10.020;2023-05-10T14:06:09;19.30;99.90
5743;DHT22;2896;53.500;10.020;2023-05-10T14:08:36;19.20;99.90
5743;DHT22;2896;53.500;10.020;2023-05-10T14:11:04;19.30;99.90
5743;DHT22;2896;53.500;10.020;2023-05-10T14:13:31;19.40;99.90
5743;DHT22;2896;53.500;10.020;2023-05-10T14:15:58;19.50;99.90
5743;DHT22;2896;53.500;10.020;2023-05-10T14:18:26;19.70;99.90
5743;DHT22;2896;53.500;10.020;2023-05-10T14:20:52;19.70;99.90
5743;DHT22;2896;53.500;10.020;2023-05-10T14:23:19;19.50;99.90
5743;DHT22;2896;53.500;10.020;2023-05-10T14:25:49;19.40;99.90
5743;DHT22;2896;53.500;10.020;2023-05-10T14:28:17;19.30;99.90
5743;DHT22;2896;53.500;10.020;2023-05-10T14:30:44;19.30;99.90
5743;DHT22;2896;53.500;10.020;2023-05-10T14:33:11;19.10;99.90
5743;DHT22;2896;53.500;10.020;2023-05-10T14:35:38;19.00;99.90
5743;DHT22;2896;53.500;10.020;2023-05-10T14:38:05;19.00;99.90
5743;DHT22;2896;53.500;10.020;2023-05-10T14:40:32;19.10;99.90
5743;DHT22;2896;53.500;10.020;2023-05-10T14:42:58;19.10;99.90
5743;DHT22;2896;53.500;10.020;2023-05-10T14:45:26;18.90;99.90
5743;DHT22;2896;53.500;10.020;2023-05-10T14:47:53;19.00;99.90
5743;DHT22;2896;53.500;10.020;2023-05-10T14:50:19;18.80;99.90
5743;DHT22;2896;53.500;10.020;2023-05-10T14:52:46;18.70;99.90
5743;DHT22;2896;53.500;10.020;2023-05-10T14:55:13;18.70;99.90
5743;DHT22;2896;53.500;10.020;2023-05-10T14:57:39;18.90;99.90
5743;DHT22;2896;53.500;10.020;2023-05-10T15:00:07;19.00;99.90
5743;DHT22;2896;53.500;10.020;2023-05-10T15:02:35;19.00;99.90
5743;DHT22;2896;53.500;10.020;2023-05-10T15:05:02;19.10;99.90
5743;DHT22;2896;53.500;10.020;2023-05-10T15:07:29;19.40;99.90
5743;DHT22;2896;53.500;10.020;2023-05-10T15:09:56;19.50;99.90
5743;DHT22;2896;53.500;10.020;2023-05-10T15:12:23;19.60;99.90
5743;DHT22;2896;53.500;10.020;2023-05-10T15:14:50;19.60;99.90
5743;DHT22;2896;53.500;10.020;2023-05-10T15:17:16;19.60;99.90
5743;DHT22;2896;53.500;10.020;2023-05-10T15:19:45;19.50;99.90
5743;DHT22;2896;53.500;10.020;2023-05-10T15:22:11;21.30;99.90
5743;DHT22;2896;53.500;10.020;2023-05-10T15:24:38;19.50;99.90
5743;DHT22;2896;53.500;10.020;2023-05-10T15:27:05;19.60;99.90
5743;DHT22;2896;53.500;10.020;2023-05-10T15:29:31;19.70;99.90
5743;DHT22;2896;53.500;10.020;2023-05-10T15:31:59;19.20;99.90
5743;DHT22;2896;53.500;10.020;2023-05-10T15:34:27;19.20;99.90
5743;DHT22;2896;53.500;10.020;2023-05-10T15:36:55;19.20;99.90
5743;DHT22;2896;53.500;10.020;2023-05-10T15:39:22;19.10;99.90
5743;DHT22;2896;53.500;10.020;2023-05-10T15:41:49;19.00;99.90
5743;DHT22;2896;53.500;10.020;2023-05-10T15:44:16;18.80;99.90
5743;DHT22;2896;53.500;10.020;2023-05-10T15:46:43;18.70;99.90
5743;DHT22;2896;53.500;10.020;2023-05-10T15:49:10;18.40;99.90
5743;DHT22;2896;53.500;10.020;2023-05-10T15:51:37;18.30;99.90
5743;DHT22;2896;53.500;10.020;2023-05-10T15:54:05;18.10;99.90
5743;DHT22;2896;53.500;10.020;2023-05-10T15:56:32;18.10;99.90